createdAt,value
2023-02-16T00:01:36.643Z,16.00
2023-02-16T00:04:19.861Z,15.20
2023-02-16T00:06:48.377Z,15.00
2023-02-16T00:09:16.530Z,16.77
2023-02-16T00:12:02.599Z,16.50
2023-02-16T00:14:30.574Z,13.97
2023-02-16T00:16:59.923Z,15.07
2023-02-16T00:19:30.878Z,16.07
2023-02-16T00:22:00.287Z,16.63
2023-02-16T00:24:29.374Z,16.73
2023-02-16T00:26:57.888Z,14.80
2023-02-16T00:29:27.464Z,16.33
2023-02-16T00:31:56.125Z,14.63
2023-02-16T00:34:32.510Z,15.33
2023-02-16T00:37:02.219Z,17.17
2023-02-16T00:39:30.262Z,15.67
2023-02-16T00:42:00.919Z,15.77
2023-02-16T00:44:33.397Z,17.13
2023-02-16T00:47:03.025Z,17.20
2023-02-16T00:49:32.138Z,16.57
2023-02-16T00:51:59.970Z,15.03
2023-02-16T00:54:28.695Z,15.47
2023-02-16T00:56:57.636Z,16.53
2023-02-16T00:59:25.580Z,16.60
2023-02-16T01:01:53.437Z,22.40
2023-02-16T01:04:22.803Z,16.23
2023-02-16T01:07:09.660Z,18.17
2023-02-16T01:09:55.148Z,15.67
2023-02-16T01:12:23.431Z,15.23
2023-02-16T01:14:53.625Z,15.07
2023-02-16T01:17:21.962Z,15.93
2023-02-16T01:19:49.788Z,16.23
2023-02-16T01:22:18.917Z,17.13
2023-02-16T01:24:46.742Z,15.10
2023-02-16T01:27:15.024Z,15.50
2023-02-16T01:29:42.856Z,19.30
2023-02-16T01:32:12.327Z,16.30
2023-02-16T01:34:40.190Z,17.80
2023-02-16T01:37:14.275Z,17.63
2023-02-16T01:39:43.610Z,14.93
2023-02-16T01:42:17.830Z,14.53
2023-02-16T01:44:48.304Z,13.50
2023-02-16T01:47:31.734Z,13.97
2023-02-16T01:50:02.775Z,15.60
2023-02-16T01:52:34.326Z,14.10
2023-02-16T01:55:06.869Z,17.03
2023-02-16T01:57:39.860Z,13.83
2023-02-16T02:00:27.652Z,13.33
2023-02-16T02:03:16.729Z,14.23
2023-02-16T02:05:43.648Z,19.17
2023-02-16T02:08:18.281Z,13.87
2023-02-16T02:10:56.004Z,13.73
2023-02-16T02:13:29.626Z,13.37
2023-02-16T02:15:59.140Z,13.37
2023-02-16T02:18:27.054Z,22.33
2023-02-16T02:21:36.139Z,13.53
2023-02-16T02:24:25.738Z,14.43
2023-02-16T02:27:10.907Z,12.30
2023-02-16T02:30:07.282Z,14.43
2023-02-16T02:32:47.253Z,15.60
2023-02-16T02:35:24.056Z,16.90
2023-02-16T02:37:57.963Z,14.27
2023-02-16T02:40:36.314Z,16.67
2023-02-16T02:43:09.429Z,14.73
2023-02-16T02:45:41.254Z,13.53
2023-02-16T02:48:09.095Z,14.40
2023-02-16T02:51:03.178Z,15.23
2023-02-16T02:53:31.329Z,14.83
2023-02-16T02:56:18.464Z,15.13
2023-02-16T02:59:07.557Z,15.60
2023-02-16T03:01:37.539Z,14.83
2023-02-16T03:04:07.500Z,14.73
2023-02-16T03:06:37.289Z,16.50
2023-02-16T03:09:08.771Z,15.03
2023-02-16T03:11:54.223Z,33.97
2023-02-16T03:14:25.943Z,15.70
2023-02-16T03:17:13.550Z,13.57
2023-02-16T03:19:59.577Z,19.33
2023-02-16T03:22:45.110Z,16.53
2023-02-16T03:25:30.315Z,15.50
2023-02-16T03:28:17.237Z,22.27
2023-02-16T03:30:47.141Z,15.37
2023-02-16T03:33:15.202Z,16.30
2023-02-16T03:35:43.871Z,15.23
2023-02-16T03:38:11.721Z,27.17
2023-02-16T03:40:41.025Z,15.23
2023-02-16T03:43:09.947Z,16.33
2023-02-16T03:45:40.752Z,13.40
2023-02-16T03:48:10.152Z,15.33
2023-02-16T03:50:37.966Z,22.70
2023-02-16T03:53:08.463Z,14.40
2023-02-16T03:55:37.645Z,20.77
2023-02-16T03:58:05.937Z,13.33
2023-02-16T04:00:34.551Z,16.93
2023-02-16T04:03:02.633Z,17.13
2023-02-16T04:05:31.856Z,17.10
2023-02-16T04:07:59.658Z,17.83
2023-02-16T04:10:27.494Z,15.27
2023-02-16T04:12:54.615Z,17.13
2023-02-16T04:15:24.500Z,20.13
2023-02-16T04:17:52.237Z,17.00
2023-02-16T04:20:21.469Z,18.73
2023-02-16T04:22:50.860Z,15.40
2023-02-16T04:25:19.745Z,17.03
2023-02-16T04:27:48.260Z,17.77
2023-02-16T04:30:18.007Z,16.63
2023-02-16T04:32:46.070Z,19.83
2023-02-16T04:35:14.103Z,15.97
2023-02-16T04:37:41.907Z,21.57
2023-02-16T04:40:13.797Z,16.77
2023-02-16T04:42:41.607Z,16.10
2023-02-16T04:45:10.366Z,19.13
2023-02-16T04:47:38.347Z,15.93
2023-02-16T04:50:07.397Z,15.93
2023-02-16T04:52:36.761Z,23.37
2023-02-16T04:55:05.561Z,26.63
2023-02-16T04:57:34.662Z,15.83
2023-02-16T05:00:03.123Z,15.70
2023-02-16T05:02:30.922Z,16.10
2023-02-16T05:04:58.669Z,16.83
2023-02-16T05:07:26.450Z,17.80
2023-02-16T05:09:54.202Z,15.60
2023-02-16T05:12:39.272Z,16.77
2023-02-16T05:15:08.731Z,30.93
2023-02-16T05:17:36.476Z,16.67
2023-02-16T05:20:04.668Z,17.80
2023-02-16T05:22:33.594Z,17.23
2023-02-16T05:25:01.356Z,15.87
2023-02-16T05:27:31.385Z,16.20
2023-02-16T05:29:59.571Z,14.87
2023-02-16T05:32:28.761Z,16.23
2023-02-16T05:34:56.494Z,16.07
2023-02-16T05:37:24.279Z,17.10
2023-02-16T05:39:52.909Z,17.13
2023-02-16T05:42:20.710Z,16.23
2023-02-16T05:44:48.432Z,21.03
2023-02-16T05:47:16.223Z,22.00
2023-02-16T05:49:45.356Z,15.33
2023-02-16T05:52:13.121Z,16.40
2023-02-16T05:54:40.879Z,14.87
2023-02-16T05:57:08.618Z,16.77
2023-02-16T05:59:36.374Z,15.80
2023-02-16T06:02:04.560Z,16.00
2023-02-16T06:04:32.738Z,17.90
2023-02-16T06:07:01.861Z,17.23
2023-02-16T06:09:31.368Z,17.17
2023-02-16T06:11:59.145Z,18.03
2023-02-16T06:14:26.932Z,20.63
2023-02-16T06:16:56.575Z,28.97
2023-02-16T06:19:24.533Z,20.93
2023-02-16T06:21:52.832Z,18.20
2023-02-16T06:24:21.925Z,17.47
2023-02-16T06:26:49.743Z,28.23
2023-02-16T06:29:17.859Z,16.93
2023-02-16T06:31:45.698Z,27.57
2023-02-16T06:34:13.514Z,17.20
2023-02-16T06:36:42.595Z,16.87
2023-02-16T06:39:10.606Z,26.03
2023-02-16T06:41:40.942Z,32.80
2023-02-16T06:44:10.148Z,39.03
2023-02-16T06:46:38.643Z,18.27
2023-02-16T06:49:06.511Z,26.50
2023-02-16T06:51:34.426Z,24.43
2023-02-16T06:54:02.225Z,21.43
2023-02-16T06:56:29.975Z,37.13
2023-02-16T06:58:59.086Z,33.90
2023-02-16T07:01:26.945Z,35.93
2023-02-16T07:03:55.991Z,17.70
2023-02-16T07:06:25.175Z,17.57
2023-02-16T07:08:53.582Z,25.23
2023-02-16T07:11:21.491Z,28.67
2023-02-16T07:13:49.309Z,23.93
2023-02-16T07:16:18.484Z,18.57
2023-02-16T07:18:46.630Z,28.60
2023-02-16T07:21:14.543Z,23.13
2023-02-16T07:23:42.349Z,26.60
2023-02-16T07:26:10.196Z,21.07
2023-02-16T07:28:38.059Z,32.03
2023-02-16T07:31:10.492Z,20.73
2023-02-16T07:33:40.063Z,35.03
2023-02-16T07:36:08.691Z,36.30
2023-02-16T07:38:36.610Z,40.43
2023-02-16T07:41:07.862Z,21.67
2023-02-16T07:43:37.194Z,26.50
2023-02-16T07:46:05.477Z,31.93
2023-02-16T07:48:33.257Z,25.97
2023-02-16T07:51:03.028Z,35.20
2023-02-16T07:53:31.187Z,36.40
2023-02-16T07:55:59.070Z,29.63
2023-02-16T07:58:29.550Z,34.97
2023-02-16T08:00:57.915Z,36.83
2023-02-16T08:03:25.834Z,30.47
2023-02-16T08:05:54.201Z,25.53
2023-02-16T08:08:23.282Z,30.80
2023-02-16T08:10:51.039Z,46.17
2023-02-16T08:13:18.783Z,43.33
2023-02-16T08:15:46.731Z,40.50
2023-02-16T08:18:15.245Z,43.30
2023-02-16T08:21:02.395Z,50.50
2023-02-16T08:23:32.461Z,35.50
2023-02-16T08:26:00.308Z,34.80
2023-02-16T08:28:29.425Z,40.90
2023-02-16T08:30:57.348Z,43.97
2023-02-16T08:33:25.173Z,36.80
2023-02-16T08:35:53.234Z,28.90
2023-02-16T08:38:21.008Z,47.67
2023-02-16T08:40:50.809Z,23.33
2023-02-16T08:43:18.849Z,44.73
2023-02-16T08:45:47.604Z,37.07
2023-02-16T08:48:16.780Z,24.60
2023-02-16T08:50:47.122Z,24.00
2023-02-16T08:53:15.472Z,31.97
2023-02-16T08:55:43.239Z,25.63
2023-02-16T08:58:12.318Z,39.30
2023-02-16T09:00:41.427Z,28.67
2023-02-16T09:03:09.135Z,32.17
2023-02-16T09:05:36.891Z,33.37
2023-02-16T09:08:04.742Z,21.60
2023-02-16T09:10:33.048Z,23.20
2023-02-16T09:13:00.769Z,25.30
2023-02-16T09:15:30.176Z,22.23
2023-02-16T09:17:58.055Z,22.47
2023-02-16T09:20:27.507Z,24.10
2023-02-16T09:22:55.243Z,21.93
2023-02-16T09:25:24.633Z,23.40
2023-02-16T09:27:53.195Z,22.67
2023-02-16T09:30:21.188Z,34.43
2023-02-16T09:32:50.787Z,25.97
2023-02-16T09:35:18.713Z,25.73
2023-02-16T09:37:46.511Z,25.60
2023-02-16T09:40:15.156Z,32.10
2023-02-16T09:42:52.424Z,31.80
2023-02-16T09:49:02.774Z,33.63
2023-02-16T09:51:42.566Z,29.27
2023-02-16T09:54:20.072Z,26.13
2023-02-16T09:56:51.920Z,38.87
2023-02-16T09:59:33.133Z,36.97
2023-02-16T10:02:08.934Z,33.07
2023-02-16T10:04:46.314Z,24.13
2023-02-16T10:07:20.410Z,22.57
2023-02-16T10:09:51.242Z,24.30
2023-02-16T10:12:23.246Z,24.90
2023-02-16T10:14:52.991Z,28.33
2023-02-16T10:17:29.334Z,23.63
2023-02-16T10:20:01.640Z,31.57
2023-02-16T10:22:33.465Z,23.07
2023-02-16T10:25:04.908Z,31.30
2023-02-16T10:27:38.267Z,30.17
2023-02-16T10:30:14.543Z,36.50
2023-02-16T10:32:53.380Z,23.50
2023-02-16T10:35:26.256Z,48.93
2023-02-16T10:38:01.697Z,24.53
2023-02-16T10:40:35.910Z,40.40
2023-02-16T10:43:08.114Z,36.40
2023-02-16T10:45:39.511Z,28.43
2023-02-16T10:48:08.550Z,28.23
2023-02-16T10:50:41.199Z,26.50
2023-02-16T10:53:14.110Z,27.90
2023-02-16T10:55:41.913Z,30.97
2023-02-16T10:58:17.790Z,31.07
2023-02-16T11:00:52.735Z,31.57
2023-02-16T11:03:25.284Z,32.57
2023-02-16T11:05:55.402Z,30.23
2023-02-16T11:08:25.683Z,28.43
2023-02-16T11:10:54.359Z,29.23
2023-02-16T11:13:28.120Z,38.23
2023-02-16T11:15:58.165Z,34.40
2023-02-16T11:18:31.597Z,42.47
2023-02-16T11:21:01.004Z,43.33
2023-02-16T11:23:30.064Z,25.97
2023-02-16T11:26:00.805Z,27.57
2023-02-16T11:28:32.634Z,30.07
2023-02-16T11:31:05.219Z,30.00
2023-02-16T11:33:34.873Z,28.50
2023-02-16T11:36:05.490Z,30.17
2023-02-16T11:38:34.967Z,30.43
2023-02-16T11:41:05.345Z,33.60
2023-02-16T11:43:36.449Z,33.77
2023-02-16T11:46:07.169Z,27.13
2023-02-16T11:48:36.523Z,26.00
2023-02-16T11:51:07.656Z,27.93
2023-02-16T11:53:37.130Z,27.20
2023-02-16T11:56:22.296Z,27.20
2023-02-16T11:59:08.935Z,28.73
2023-02-16T12:02:01.177Z,27.07
2023-02-16T12:04:42.762Z,27.53
2023-02-16T12:07:17.663Z,25.50
2023-02-16T12:09:51.518Z,24.90
2023-02-16T12:12:22.161Z,25.70
2023-02-16T12:15:00.127Z,27.73
2023-02-16T12:17:37.025Z,27.97
2023-02-16T12:20:31.071Z,27.10
2023-02-16T12:23:08.080Z,26.00
2023-02-16T12:25:39.134Z,25.80
2023-02-16T12:28:17.235Z,23.47
2023-02-16T12:30:53.758Z,25.03
2023-02-16T12:33:29.759Z,24.27
2023-02-16T12:36:38.579Z,23.73
2023-02-16T12:39:18.337Z,24.17
2023-02-16T12:41:57.857Z,25.10
2023-02-16T12:44:33.221Z,23.23
2023-02-16T12:47:05.276Z,23.97
2023-02-16T12:49:40.326Z,23.10
2023-02-16T12:52:12.203Z,24.50
2023-02-16T12:54:45.318Z,25.23
2023-02-16T12:57:15.045Z,25.13
2023-02-16T12:59:47.281Z,26.13
2023-02-16T13:02:20.821Z,24.57
2023-02-16T13:04:51.785Z,24.33
2023-02-16T13:07:24.945Z,25.40
2023-02-16T13:09:59.714Z,24.20
2023-02-16T13:12:31.658Z,24.43
2023-02-16T13:15:04.829Z,23.20
2023-02-16T13:17:38.130Z,25.47
2023-02-16T13:20:14.632Z,24.83
2023-02-16T13:34:09.610Z,24.27
2023-02-16T13:36:52.882Z,27.30
2023-02-16T13:39:49.329Z,25.53
2023-02-16T13:42:31.371Z,25.37
2023-02-16T13:45:00.769Z,24.93
2023-02-16T13:47:31.355Z,26.17
2023-02-16T13:50:02.282Z,26.10
2023-02-16T13:52:33.010Z,25.10
2023-02-16T13:55:03.223Z,25.93
2023-02-16T13:58:01.782Z,26.50
2023-02-16T14:00:31.371Z,26.50
2023-02-16T14:03:01.259Z,27.90
2023-02-16T14:05:34.250Z,29.50
2023-02-16T14:08:20.739Z,26.83
2023-02-16T14:11:04.000Z,27.50
2023-02-16T14:13:33.363Z,27.47
2023-02-16T14:16:08.095Z,27.77
2023-02-16T14:18:42.715Z,26.20
2023-02-16T14:21:22.249Z,26.03
2023-02-16T14:23:56.218Z,27.27
2023-02-16T14:26:24.307Z,26.47
2023-02-16T14:29:00.312Z,26.23
2023-02-16T14:31:28.874Z,27.50
2023-02-16T14:34:03.106Z,29.43
2023-02-16T14:36:32.695Z,26.83
2023-02-16T14:39:01.957Z,28.47
2023-02-16T14:41:32.239Z,28.07
2023-02-16T14:44:30.762Z,27.23
2023-02-16T14:47:05.189Z,28.50
2023-02-16T14:49:51.549Z,28.43
2023-02-16T14:52:45.885Z,27.57
2023-02-16T14:55:46.020Z,27.53
2023-02-16T14:58:24.103Z,28.10
2023-02-16T15:00:54.273Z,35.97
2023-02-16T15:03:23.868Z,27.33
2023-02-16T15:05:57.264Z,28.43
2023-02-16T15:08:34.402Z,27.07
2023-02-16T15:11:05.987Z,30.40
2023-02-16T15:13:34.675Z,28.90
2023-02-16T15:16:04.706Z,28.97
2023-02-16T15:18:34.926Z,28.97
2023-02-16T15:21:02.895Z,28.90
2023-02-16T15:23:35.094Z,26.67
2023-02-16T15:26:04.687Z,29.80
2023-02-16T15:28:35.851Z,28.70
2023-02-16T15:31:06.791Z,30.63
2023-02-16T15:33:37.243Z,26.67
2023-02-16T15:36:08.997Z,27.37
2023-02-16T15:38:40.123Z,24.40
2023-02-16T15:41:10.591Z,26.03
2023-02-16T15:43:40.482Z,25.30
2023-02-16T15:46:15.919Z,27.90
2023-02-16T15:48:43.783Z,28.07
2023-02-16T15:51:15.680Z,27.63
2023-02-16T15:53:50.678Z,26.60
2023-02-16T15:56:27.973Z,26.77
2023-02-16T15:58:56.671Z,29.10
2023-02-16T16:01:31.570Z,32.83
2023-02-16T16:04:01.807Z,29.93
2023-02-16T16:06:35.380Z,29.20
2023-02-16T16:09:08.495Z,28.40
2023-02-16T16:11:37.929Z,27.27
2023-02-16T16:14:07.252Z,27.20
2023-02-16T16:16:36.232Z,26.83
2023-02-16T16:19:08.811Z,27.43
2023-02-16T16:21:39.299Z,29.47
2023-02-16T16:24:09.600Z,25.70
2023-02-16T16:26:52.303Z,25.90
2023-02-16T16:29:35.301Z,29.10
2023-02-16T16:32:04.199Z,26.10
2023-02-16T16:34:37.570Z,23.53
2023-02-16T16:37:07.602Z,22.17
2023-02-16T16:39:39.147Z,27.33
2023-02-16T16:42:17.142Z,25.50
2023-02-16T16:44:46.783Z,23.90
2023-02-16T16:47:24.846Z,23.23
2023-02-16T16:49:54.342Z,23.40
2023-02-16T16:52:37.232Z,21.63
2023-02-16T16:55:22.449Z,23.17
2023-02-16T16:57:51.432Z,21.73
2023-02-16T17:00:20.356Z,23.07
2023-02-16T17:02:48.541Z,20.30
2023-02-16T17:05:16.469Z,22.20
2023-02-16T17:07:48.943Z,20.47
2023-02-16T17:10:19.479Z,21.57
2023-02-16T17:12:47.641Z,19.60
2023-02-16T17:15:35.699Z,18.97
2023-02-16T17:18:03.854Z,19.23
2023-02-16T17:20:32.201Z,20.10
2023-02-16T17:23:04.634Z,19.43
2023-02-16T17:25:35.551Z,20.93
2023-02-16T17:28:03.694Z,21.43
2023-02-16T17:30:31.853Z,21.30
2023-02-16T17:33:00.112Z,20.13
2023-02-16T17:35:28.239Z,19.10
2023-02-16T17:37:56.005Z,21.63
2023-02-16T17:40:24.875Z,21.63
2023-02-16T17:42:54.026Z,23.30
2023-02-16T17:45:23.250Z,19.67
2023-02-16T17:47:52.404Z,19.33
2023-02-16T17:50:21.148Z,19.43
2023-02-16T17:52:48.948Z,15.27
2023-02-16T17:55:16.895Z,14.77
2023-02-16T17:57:44.671Z,15.50
2023-02-16T18:00:19.519Z,14.07
2023-02-16T18:02:47.548Z,14.90
2023-02-16T18:05:15.562Z,16.30
2023-02-16T18:07:43.323Z,18.50
2023-02-16T18:10:17.277Z,15.43
2023-02-16T18:12:45.020Z,13.53
2023-02-16T18:15:12.979Z,14.93
2023-02-16T18:17:42.109Z,13.77
2023-02-16T18:20:13.376Z,15.50
2023-02-16T18:22:41.187Z,14.77
2023-02-16T18:25:09.480Z,13.80
2023-02-16T18:27:37.315Z,14.63
2023-02-16T18:30:05.747Z,14.93
2023-02-16T18:32:33.514Z,15.60
2023-02-16T18:35:02.708Z,13.37
2023-02-16T18:37:30.464Z,15.30
2023-02-16T18:39:58.282Z,14.50
2023-02-16T18:42:26.073Z,14.73
2023-02-16T18:44:53.848Z,14.57
2023-02-16T18:47:21.766Z,14.67
2023-02-16T18:49:50.532Z,14.67
2023-02-16T18:52:19.861Z,13.63
2023-02-16T18:54:47.581Z,14.37
2023-02-16T18:57:15.343Z,13.53
2023-02-16T18:59:43.110Z,16.87
2023-02-16T19:02:12.959Z,12.80
2023-02-16T19:04:41.789Z,13.10
2023-02-16T19:07:09.905Z,13.17
2023-02-16T19:09:39.045Z,12.80
2023-02-16T19:12:06.985Z,12.47
2023-02-16T19:14:34.711Z,12.87
2023-02-16T19:17:02.556Z,13.17
2023-02-16T19:19:33.122Z,13.30
2023-02-16T19:22:01.127Z,12.77
2023-02-16T19:24:28.912Z,15.63
2023-02-16T19:26:58.168Z,25.57
2023-02-16T19:29:25.936Z,16.37
2023-02-16T19:31:53.867Z,14.10
2023-02-16T19:34:21.660Z,13.50
2023-02-16T19:36:49.408Z,13.47
2023-02-16T19:39:18.167Z,17.73
2023-02-16T19:41:45.899Z,13.20
2023-02-16T19:44:15.324Z,15.20
2023-02-16T19:46:43.486Z,17.90
2023-02-16T19:49:14.297Z,16.93
2023-02-16T19:51:42.135Z,14.17
2023-02-16T19:54:09.969Z,16.60
2023-02-16T19:56:40.506Z,19.10
2023-02-16T19:59:09.050Z,28.30
2023-02-16T20:01:38.285Z,19.43
2023-02-16T20:04:06.071Z,21.73
2023-02-16T20:06:37.238Z,25.90
2023-02-16T20:09:05.069Z,19.23
2023-02-16T20:11:33.074Z,15.40
2023-02-16T20:14:01.501Z,16.23
2023-02-16T20:16:29.302Z,15.50
2023-02-16T20:18:58.879Z,16.73
2023-02-16T20:21:28.543Z,15.17
2023-02-16T20:23:58.027Z,18.47
2023-02-16T20:26:28.268Z,16.83
2023-02-16T20:28:56.398Z,31.80
2023-02-16T20:31:26.067Z,17.13
2023-02-16T20:33:54.360Z,16.67
2023-02-16T20:36:23.865Z,15.87
2023-02-16T20:38:51.730Z,18.83
2023-02-16T20:41:19.807Z,16.03
2023-02-16T20:43:47.666Z,16.57
2023-02-16T20:46:16.594Z,15.73
2023-02-16T20:48:45.025Z,15.00
2023-02-16T20:51:14.146Z,15.07
2023-02-16T20:53:43.321Z,13.83
2023-02-16T20:56:15.311Z,13.13
2023-02-16T20:58:43.845Z,13.83
2023-02-16T21:01:13.166Z,13.87
2023-02-16T21:03:41.008Z,15.10
2023-02-16T21:06:08.846Z,14.10
2023-02-16T21:08:36.663Z,14.87
2023-02-16T21:11:06.123Z,14.40
2023-02-16T21:13:34.126Z,13.93
2023-02-16T21:16:03.999Z,15.20
2023-02-16T21:18:32.499Z,15.63
2023-02-16T21:21:00.421Z,16.70
2023-02-16T21:23:28.561Z,17.47
2023-02-16T21:25:58.833Z,16.83
2023-02-16T21:28:28.388Z,17.00
2023-02-16T21:30:56.758Z,15.10
2023-02-16T21:33:24.565Z,15.30
2023-02-16T21:35:52.314Z,15.33
2023-02-16T21:38:20.058Z,14.77
2023-02-16T21:41:05.225Z,15.13
2023-02-16T21:43:34.329Z,15.07
2023-02-16T21:46:02.767Z,14.50
2023-02-16T21:48:47.786Z,14.03
2023-02-16T21:51:17.374Z,15.07
2023-02-16T21:53:45.133Z,14.27
2023-02-16T21:56:22.295Z,15.43
2023-02-16T21:58:51.398Z,14.37
2023-02-16T22:01:23.405Z,15.43
2023-02-16T22:03:55.994Z,14.80
2023-02-16T22:06:25.338Z,13.53
2023-02-16T22:08:53.187Z,15.73
2023-02-16T22:11:21.111Z,14.30
2023-02-16T22:13:52.867Z,15.63
2023-02-16T22:16:22.744Z,16.23
2023-02-16T22:18:51.562Z,16.83
2023-02-16T22:21:19.332Z,16.40
2023-02-16T22:23:47.085Z,16.13
2023-02-16T22:26:22.292Z,18.37
2023-02-16T22:28:50.529Z,17.53
2023-02-16T22:31:19.620Z,16.97
2023-02-16T22:33:49.100Z,16.87
2023-02-16T22:36:16.833Z,16.60
2023-02-16T22:38:45.214Z,17.97
2023-02-16T22:41:13.876Z,17.93
2023-02-16T22:43:41.735Z,17.93
2023-02-16T22:46:12.104Z,18.23
2023-02-16T22:48:40.021Z,17.97
2023-02-16T22:51:11.036Z,17.63
2023-02-16T22:53:38.810Z,18.90
2023-02-16T22:56:08.054Z,16.13
2023-02-16T22:58:36.267Z,16.97
2023-02-16T23:01:04.687Z,17.03
2023-02-16T23:03:33.318Z,15.80
2023-02-16T23:06:01.053Z,16.47
2023-02-16T23:08:30.231Z,16.43
2023-02-16T23:11:00.981Z,16.20
2023-02-16T23:13:29.568Z,17.07
2023-02-16T23:15:58.122Z,17.13
2023-02-16T23:18:26.109Z,17.63
2023-02-16T23:20:54.210Z,16.93
2023-02-16T23:23:22.201Z,17.43
2023-02-16T23:25:51.671Z,16.30
2023-02-16T23:28:19.440Z,17.33
2023-02-16T23:30:48.610Z,15.97
2023-02-16T23:33:16.675Z,15.80
2023-02-16T23:35:44.457Z,15.30
2023-02-16T23:38:14.288Z,15.20
2023-02-16T23:40:42.830Z,16.43
2023-02-16T23:43:12.140Z,15.37
2023-02-16T23:45:40.795Z,14.50
2023-02-16T23:48:08.575Z,13.57
2023-02-16T23:50:36.774Z,13.73
2023-02-16T23:53:04.580Z,14.07
2023-02-16T23:55:32.437Z,15.07
2023-02-16T23:58:00.399Z,14.07
